Time;durP1;ratioP1;P1;durP2;ratioP2;P2;SDS_P1;SDS_P2;PMS_P1;PMS_P2;Temp;Humidity;BMP_temperature;BMP_pressure;BME280_temperature;BME280_humidity;BME280_pressure;Samples;Min_cycle;Max_cycle;Signal;HPM_P1;HPM_P2
2022/02/13 00:00:20;;;;;;;18.60;8.50;;;3.70;99.90;;;;;;5090011;28;20020;-71
2022/02/13 00:02:46;;;;;;;19.52;8.60;;;3.70;99.90;;;;;;5090457;28;20416;-71
2022/02/13 00:05:13;;;;;;;15.98;7.45;;;3.70;99.90;;;;;;5092399;28;20354;-72
2022/02/13 00:07:39;;;;;;;13.77;7.13;;;3.70;99.90;;;;;;5085997;28;20491;-71
2022/02/13 00:10:08;;;;;;;16.77;7.90;;;3.60;99.90;;;;;;5086274;28;20035;-72
2022/02/13 00:12:34;;;;;;;18.17;7.63;;;3.70;99.90;;;;;;5087052;28;20028;-73
2022/02/13 00:15:00;;;;;;;19.88;8.82;;;3.70;99.90;;;;;;5089556;28;20032;-72
2022/02/13 00:17:26;;;;;;;16.40;7.20;;;3.60;99.90;;;;;;5089734;28;20194;-73
2022/02/13 00:19:51;;;;;;;16.58;8.68;;;3.60;99.90;;;;;;5082161;28;20028;-72
2022/02/13 00:22:18;;;;;;;15.00;8.02;;;3.60;99.90;;;;;;5086853;28;20028;-72
2022/02/13 00:24:45;;;;;;;17.67;8.02;;;3.60;99.90;;;;;;5088645;28;20028;-72
2022/02/13 00:27:11;;;;;;;14.23;7.57;;;3.60;99.90;;;;;;5085767;28;20029;-71
2022/02/13 00:29:37;;;;;;;21.92;8.65;;;3.60;99.90;;;;;;5088013;28;20042;-70
2022/02/13 00:32:05;;;;;;;17.67;7.72;;;3.50;99.90;;;;;;5090772;28;20036;-71
2022/02/13 00:34:32;;;;;;;15.40;7.72;;;3.50;99.90;;;;;;5089279;28;20841;-71
2022/02/13 00:36:58;;;;;;;17.35;7.85;;;3.50;99.90;;;;;;5087191;28;20103;-72
2022/02/13 00:39:24;;;;;;;12.50;7.70;;;3.40;99.90;;;;;;5086209;28;20433;-72
2022/02/13 00:41:50;;;;;;;18.33;7.55;;;3.50;99.90;;;;;;5088244;28;20078;-72
2022/02/13 00:44:16;;;;;;;15.13;7.40;;;3.50;99.90;;;;;;5086627;28;20032;-71
2022/02/13 00:46:42;;;;;;;12.07;6.68;;;3.50;99.90;;;;;;5084411;28;20026;-71
2022/02/13 00:49:07;;;;;;;15.48;7.55;;;3.50;99.90;;;;;;5089355;28;20435;-72
2022/02/13 00:51:33;;;;;;;13.18;7.82;;;3.40;99.90;;;;;;5083365;28;20047;-73
2022/02/13 00:53:59;;;;;;;14.82;7.25;;;3.40;99.90;;;;;;5087925;28;20024;-71
2022/02/13 00:56:25;;;;;;;17.13;8.73;;;3.40;99.90;;;;;;5087193;28;20461;-71
2022/02/13 00:58:52;;;;;;;15.55;7.38;;;3.40;99.90;;;;;;5091007;28;20056;-71
2022/02/13 01:01:18;;;;;;;15.65;7.80;;;3.40;99.90;;;;;;5089995;28;20025;-71
2022/02/13 01:03:44;;;;;;;17.65;7.47;;;3.40;99.90;;;;;;5087811;28;20028;-71
2022/02/13 01:06:09;;;;;;;13.15;6.70;;;3.40;99.90;;;;;;5081734;28;20028;-72
2022/02/13 01:08:36;;;;;;;12.82;6.60;;;3.30;99.90;;;;;;5088833;28;20058;-72
2022/02/13 01:11:01;;;;;;;15.95;7.55;;;3.30;99.90;;;;;;5086789;28;20902;-72
2022/02/13 01:13:28;;;;;;;12.95;6.68;;;3.30;99.90;;;;;;5089732;28;20108;-71
2022/02/13 01:15:54;;;;;;;13.73;7.57;;;3.30;99.90;;;;;;5086403;28;20032;-72
2022/02/13 01:18:19;;;;;;;10.85;6.85;;;3.30;99.90;;;;;;5088426;28;20020;-72
2022/02/13 01:20:46;;;;;;;13.27;6.95;;;3.20;99.90;;;;;;5088365;28;20031;-72
2022/02/13 01:23:12;;;;;;;13.35;6.93;;;3.20;99.90;;;;;;5088558;28;20028;-72
2022/02/13 01:25:38;;;;;;;23.25;7.20;;;3.20;99.90;;;;;;5087381;28;20031;-71
2022/02/13 01:28:05;;;;;;;15.75;7.15;;;3.10;99.90;;;;;;5089966;28;20032;-71
2022/02/13 01:30:32;;;;;;;14.07;7.18;;;3.20;99.90;;;;;;5087290;28;20033;-71
2022/02/13 01:32:58;;;;;;;17.85;7.45;;;3.20;99.90;;;;;;5086128;28;20025;-71
2022/02/13 01:35:24;;;;;;;13.10;7.50;;;3.10;99.90;;;;;;5090186;28;20361;-71
2022/02/13 01:37:50;;;;;;;18.92;8.05;;;3.10;99.90;;;;;;5085113;28;20028;-71
2022/02/13 01:40:16;;;;;;;15.50;6.93;;;3.10;99.90;;;;;;5091334;28;20020;-71
2022/02/13 01:42:41;;;;;;;15.65;7.28;;;3.00;99.90;;;;;;5091194;28;20113;-71
2022/02/13 01:45:07;;;;;;;14.18;7.05;;;3.10;99.90;;;;;;5086971;28;20174;-71
2022/02/13 01:47:34;;;;;;;13.18;7.28;;;3.00;99.90;;;;;;5087899;28;20035;-71
2022/02/13 01:50:05;;;;;;;16.33;7.18;;;3.00;99.90;;;;;;5090846;28;20028;-72
2022/02/13 01:52:31;;;;;;;13.90;7.05;;;3.00;99.90;;;;;;5090744;28;20119;-71
2022/02/13 01:54:58;;;;;;;13.10;6.50;;;3.00;99.90;;;;;;5086794;28;20444;-72
2022/02/13 01:57:25;;;;;;;14.50;7.45;;;3.00;99.90;;;;;;5088094;28;20058;-72
2022/02/13 01:59:51;;;;;;;13.23;6.63;;;3.00;99.90;;;;;;5085702;28;20077;-71
2022/02/13 02:02:17;;;;;;;16.45;7.18;;;3.00;99.90;;;;;;5088104;28;20031;-71
2022/02/13 02:04:43;;;;;;;15.43;7.22;;;3.00;99.90;;;;;;5085287;28;20052;-71
2022/02/13 02:07:08;;;;;;;13.05;7.28;;;2.90;99.90;;;;;;5086696;28;20027;-71
2022/02/13 02:09:34;;;;;;;13.10;7.30;;;3.00;99.90;;;;;;5087045;28;20024;-72
2022/02/13 02:12:04;;;;;;;18.95;6.82;;;2.90;99.90;;;;;;5089373;28;20032;-72
2022/02/13 02:14:30;;;;;;;12.65;6.75;;;2.90;99.90;;;;;;5090225;28;20029;-72
2022/02/13 02:16:55;;;;;;;13.35;6.80;;;2.90;99.90;;;;;;5087783;28;20024;-71
2022/02/13 02:19:21;;;;;;;12.43;6.68;;;2.90;99.90;;;;;;5092017;28;20027;-72
2022/02/13 02:21:46;;;;;;;14.05;6.38;;;2.90;99.90;;;;;;5081474;28;20468;-72
2022/02/13 02:24:13;;;;;;;11.68;6.97;;;2.90;99.90;;;;;;5084961;28;20039;-72
2022/02/13 02:26:40;;;;;;;15.52;7.30;;;2.90;99.90;;;;;;5090769;28;20024;-71
2022/02/13 02:29:06;;;;;;;11.32;6.32;;;2.80;99.90;;;;;;5081919;28;20542;-72
2022/02/13 02:31:32;;;;;;;12.82;7.13;;;2.70;99.90;;;;;;5087477;28;20040;-72
2022/02/13 02:33:58;;;;;;;11.02;6.57;;;2.70;99.90;;;;;;5085491;28;20047;-72
2022/02/13 02:36:23;;;;;;;12.30;6.30;;;2.80;99.90;;;;;;5082077;28;20052;-71
2022/02/13 02:38:49;;;;;;;11.98;5.90;;;2.80;99.90;;;;;;5091970;28;20025;-72
2022/02/13 02:41:15;;;;;;;16.35;6.68;;;2.80;99.90;;;;;;5080423;28;20477;-71
2022/02/13 02:43:41;;;;;;;12.85;6.65;;;2.80;99.90;;;;;;5089805;28;20032;-72
2022/02/13 02:46:08;;;;;;;10.18;6.45;;;2.70;99.90;;;;;;5088697;28;20032;-71
2022/02/13 02:48:34;;;;;;;14.18;7.75;;;2.70;99.90;;;;;;5083907;28;20027;-71
2022/02/13 02:51:01;;;;;;;11.60;5.97;;;2.70;99.90;;;;;;5088776;28;20048;-72
2022/02/13 02:53:27;;;;;;;13.35;6.60;;;2.70;99.90;;;;;;5083656;28;20055;-71
2022/02/13 02:55:54;;;;;;;10.02;6.32;;;2.70;99.90;;;;;;5087863;28;20145;-71
2022/02/13 02:58:19;;;;;;;9.80;5.93;;;2.80;99.90;;;;;;5087337;28;20020;-71
2022/02/13 03:00:45;;;;;;;8.73;5.90;;;2.70;99.90;;;;;;5084072;28;20038;-71
2022/02/13 03:03:11;;;;;;;9.32;6.15;;;2.80;99.90;;;;;;5088379;28;20526;-71
2022/02/13 03:05:36;;;;;;;12.02;5.82;;;2.70;99.90;;;;;;5083725;28;20066;-72
2022/02/13 03:08:02;;;;;;;15.07;7.10;;;2.70;99.90;;;;;;5089407;28;20028;-71
2022/02/13 03:10:28;;;;;;;9.52;5.63;;;2.70;99.90;;;;;;5083183;28;20040;-71
2022/02/13 03:12:54;;;;;;;14.73;6.95;;;2.60;99.90;;;;;;5087408;28;20035;-72
2022/02/13 03:15:20;;;;;;;12.77;6.13;;;2.70;99.90;;;;;;5083407;28;20378;-71
2022/02/13 03:17:45;;;;;;;12.45;6.22;;;2.80;99.90;;;;;;5090136;28;20024;-71
2022/02/13 03:20:11;;;;;;;12.30;5.97;;;2.80;99.90;;;;;;5083939;28;20032;-71
2022/02/13 03:22:37;;;;;;;11.82;6.63;;;2.80;99.90;;;;;;5089240;28;20082;-71
2022/02/13 03:25:03;;;;;;;12.57;6.50;;;2.70;99.90;;;;;;5081442;28;20539;-70
2022/02/13 03:27:29;;;;;;;11.55;6.03;;;2.70;99.90;;;;;;5085994;28;20020;-70
2022/02/13 03:29:55;;;;;;;10.68;5.93;;;2.60;99.90;;;;;;5088700;28;20028;-71
2022/02/13 03:32:21;;;;;;;14.10;6.28;;;2.70;99.90;;;;;;5091017;28;20028;-70
2022/02/13 03:34:47;;;;;;;11.95;5.45;;;2.70;99.90;;;;;;5092619;28;20346;-71
2022/02/13 03:37:14;;;;;;;12.07;5.95;;;2.60;99.90;;;;;;5081163;28;20384;-70
2022/02/13 03:39:40;;;;;;;13.43;5.35;;;2.70;99.90;;;;;;5089528;28;20055;-70
2022/02/13 03:42:07;;;;;;;13.00;6.30;;;2.70;99.90;;;;;;5093224;28;20550;-70
2022/02/13 03:44:33;;;;;;;12.15;5.82;;;2.70;99.90;;;;;;5091301;28;20047;-70
2022/02/13 03:46:59;;;;;;;12.57;6.32;;;2.70;99.90;;;;;;5089390;28;20028;-70
2022/02/13 03:49:25;;;;;;;14.18;6.07;;;2.70;99.90;;;;;;5089954;28;20035;-70
2022/02/13 03:51:51;;;;;;;10.93;5.40;;;2.70;99.90;;;;;;5092857;28;20131;-70
2022/02/13 03:54:17;;;;;;;9.93;5.68;;;2.70;99.90;;;;;;5085962;28;20066;-70
2022/02/13 03:56:42;;;;;;;11.60;5.75;;;2.60;99.90;;;;;;5092371;28;20070;-70
2022/02/13 03:59:08;;;;;;;12.57;5.38;;;2.70;99.90;;;;;;5085561;28;20052;-70
2022/02/13 04:01:34;;;;;;;12.75;5.32;;;2.70;99.90;;;;;;5091343;28;20031;-70
2022/02/13 04:03:59;;;;;;;8.38;5.15;;;2.70;99.90;;;;;;5088251;28;20028;-70
2022/02/13 04:06:25;;;;;;;12.02;6.25;;;2.80;99.90;;;;;;5090689;28;20069;-70
2022/02/13 04:08:50;;;;;;;10.38;6.32;;;2.80;99.90;;;;;;5093310;28;20480;-70
2022/02/13 04:11:17;;;;;;;10.68;5.47;;;2.90;99.90;;;;;;5088238;28;20403;-70
2022/02/13 04:13:42;;;;;;;12.05;5.47;;;2.70;99.90;;;;;;5092792;28;20039;-70
2022/02/13 04:16:08;;;;;;;9.85;5.75;;;2.80;99.90;;;;;;5090181;28;20035;-72
2022/02/13 04:18:34;;;;;;;13.10;5.35;;;2.70;99.90;;;;;;5094009;28;20034;-72
2022/02/13 04:20:59;;;;;;;12.50;5.55;;;2.70;99.90;;;;;;5088077;28;20034;-70
2022/02/13 04:23:29;;;;;;;11.35;5.72;;;2.70;99.90;;;;;;5087736;28;20017;-70
2022/02/13 04:25:54;;;;;;;9.98;5.45;;;2.80;99.90;;;;;;5093856;28;20020;-72
2022/02/13 04:28:20;;;;;;;8.75;5.05;;;2.70;99.90;;;;;;5093057;28;20182;-70
2022/02/13 04:30:46;;;;;;;12.43;6.03;;;2.70;99.90;;;;;;5093020;28;20031;-70
2022/02/13 04:33:11;;;;;;;10.88;6.20;;;2.70;99.90;;;;;;5089298;28;20032;-70
2022/02/13 04:35:37;;;;;;;8.10;5.45;;;2.70;99.90;;;;;;5087122;28;20039;-70
2022/02/13 04:38:03;;;;;;;10.85;5.63;;;2.70;99.90;;;;;;5084798;28;20024;-70
2022/02/13 04:40:29;;;;;;;11.23;4.95;;;2.70;99.90;;;;;;5090971;28;20028;-70
2022/02/13 04:42:54;;;;;;;8.60;5.20;;;2.60;99.90;;;;;;5083788;28;20409;-71
2022/02/13 04:45:20;;;;;;;11.68;5.97;;;2.70;99.90;;;;;;5089664;28;20031;-70
2022/02/13 04:47:48;;;;;;;13.15;6.18;;;2.70;99.90;;;;;;5086258;28;20150;-70
2022/02/13 04:50:20;;;;;;;11.77;5.88;;;2.70;99.90;;;;;;5087209;28;20020;-71
2022/02/13 04:52:46;;;;;;;;;;;2.60;99.90;;;;;;5089441;28;20102;-70
2022/02/13 04:55:12;;;;;;;10.77;5.25;;;2.70;99.90;;;;;;5087024;28;20384;-70
2022/02/13 04:57:39;;;;;;;10.73;5.93;;;2.70;99.90;;;;;;5092409;28;20114;-70
2022/02/13 05:00:05;;;;;;;11.15;6.15;;;2.70;99.90;;;;;;5083904;28;20028;-70
2022/02/13 05:02:31;;;;;;;9.77;6.00;;;2.70;99.90;;;;;;5091182;28;20051;-69
2022/02/13 05:04:57;;;;;;;11.68;5.60;;;2.80;99.90;;;;;;5084808;28;20024;-70
2022/02/13 05:07:22;;;;;;;10.25;5.97;;;2.70;99.90;;;;;;5090728;28;20107;-70
2022/02/13 05:09:48;;;;;;;14.73;6.10;;;2.70;99.90;;;;;;5087996;28;20036;-70
2022/02/13 05:12:13;;;;;;;13.38;6.03;;;2.60;99.90;;;;;;5086898;28;20054;-70
2022/02/13 05:14:40;;;;;;;10.65;6.03;;;2.70;99.90;;;;;;5090498;28;20035;-70
2022/02/13 05:17:06;;;;;;;11.20;5.50;;;2.60;99.90;;;;;;5084729;28;20106;-70
2022/02/13 05:19:32;;;;;;;12.82;6.35;;;2.70;99.90;;;;;;5090783;28;20395;-70
2022/02/13 05:21:57;;;;;;;10.90;6.80;;;2.70;99.90;;;;;;5083559;28;20028;-70
2022/02/13 05:24:23;;;;;;;8.75;6.07;;;2.70;99.90;;;;;;5090924;28;20059;-70
2022/02/13 05:26:49;;;;;;;10.10;5.97;;;2.70;99.90;;;;;;5086191;28;20028;-69
2022/02/13 05:29:15;;;;;;;12.73;6.65;;;2.80;99.90;;;;;;5088416;28;20021;-71
2022/02/13 05:31:41;;;;;;;11.63;7.00;;;2.80;99.90;;;;;;5084033;28;20040;-70
2022/02/13 05:34:07;;;;;;;9.85;5.82;;;2.90;99.90;;;;;;5089737;28;20464;-70
2022/02/13 05:36:32;;;;;;;11.43;6.30;;;2.80;99.90;;;;;;5085931;28;20032;-70
2022/02/13 05:38:58;;;;;;;11.52;6.63;;;2.80;99.90;;;;;;5089139;28;20107;-70
2022/02/13 05:41:23;;;;;;;10.38;6.43;;;2.80;99.90;;;;;;5084901;28;20039;-70
2022/02/13 05:43:50;;;;;;;9.45;6.53;;;2.80;99.90;;;;;;5086986;28;20107;-70
2022/02/13 05:46:15;;;;;;;10.73;6.75;;;2.70;99.90;;;;;;5089816;28;20044;-70
2022/02/13 05:48:41;;;;;;;12.15;5.95;;;2.70;99.90;;;;;;5084991;28;20063;-70
2022/02/13 05:51:10;;;;;;;11.90;6.53;;;2.80;99.90;;;;;;5087984;28;20463;-70
2022/02/13 05:53:36;;;;;;;10.65;6.30;;;2.80;99.90;;;;;;5089974;28;20119;-70
2022/02/13 05:56:01;;;;;;;10.27;5.97;;;2.80;99.90;;;;;;5089005;28;20531;-70
2022/02/13 05:58:27;;;;;;;9.30;6.00;;;2.80;99.90;;;;;;5091599;28;20032;-70
2022/02/13 06:00:52;;;;;;;10.52;6.35;;;2.60;99.90;;;;;;5083675;28;20388;-70
2022/02/13 06:03:18;;;;;;;11.15;5.78;;;2.70;99.90;;;;;;5089946;28;20059;-70
2022/02/13 06:05:44;;;;;;;9.52;6.00;;;2.70;99.90;;;;;;5087129;28;20054;-70
2022/02/13 06:08:09;;;;;;;10.65;6.88;;;2.70;99.90;;;;;;5087600;28;20064;-70
2022/02/13 06:10:35;;;;;;;11.02;6.18;;;2.70;99.90;;;;;;5087510;28;20036;-70
2022/02/13 06:13:01;;;;;;;11.13;6.80;;;2.70;99.90;;;;;;5079313;28;20033;-70
2022/02/13 06:15:26;;;;;;;9.93;5.80;;;2.80;99.90;;;;;;5086225;28;20099;-70
2022/02/13 06:17:52;;;;;;;11.75;6.25;;;2.80;99.90;;;;;;5089582;28;20033;-70
2022/02/13 06:20:18;;;;;;;13.77;7.10;;;2.80;99.90;;;;;;5086341;28;20016;-70
2022/02/13 06:22:43;;;;;;;10.07;6.75;;;2.80;99.90;;;;;;5084066;28;20032;-70
2022/02/13 06:25:09;;;;;;;11.15;6.85;;;2.90;99.90;;;;;;5084705;28;20025;-69
2022/02/13 06:27:35;;;;;;;11.98;6.40;;;2.70;99.90;;;;;;5086971;28;20036;-70
2022/02/13 06:30:01;;;;;;;11.73;6.63;;;2.60;99.90;;;;;;5085349;28;20142;-70
2022/02/13 06:32:26;;;;;;;11.50;5.82;;;2.60;99.90;;;;;;5088831;28;20036;-70
2022/02/13 06:34:52;;;;;;;13.73;7.03;;;2.60;99.90;;;;;;5086805;28;20515;-70
2022/02/13 06:37:18;;;;;;;12.13;7.18;;;2.60;99.90;;;;;;5087517;28;20032;-70
2022/02/13 06:39:43;;;;;;;13.68;6.60;;;2.70;99.90;;;;;;5086009;28;20533;-70
2022/02/13 06:42:09;;;;;;;11.95;6.25;;;2.70;99.90;;;;;;5087684;28;20035;-70
2022/02/13 06:44:35;;;;;;;12.88;6.88;;;2.70;99.90;;;;;;5086310;28;20029;-70
2022/02/13 06:47:00;;;;;;;12.18;6.47;;;2.70;99.90;;;;;;5085575;28;20016;-70
2022/02/13 06:49:26;;;;;;;11.77;6.57;;;2.70;99.90;;;;;;5089082;28;20028;-70
2022/02/13 06:51:52;;;;;;;14.85;7.43;;;2.70;99.90;;;;;;5085150;28;20111;-71
2022/02/13 06:54:17;;;;;;;12.30;6.30;;;2.70;99.90;;;;;;5090210;28;20066;-70
2022/02/13 06:56:43;;;;;;;9.20;6.55;;;2.70;99.90;;;;;;5089240;28;20472;-70
2022/02/13 06:59:08;;;;;;;12.40;7.13;;;2.70;99.90;;;;;;5087427;28;20038;-70
2022/02/13 07:01:34;;;;;;;11.02;6.63;;;2.80;99.90;;;;;;5085038;28;20026;-71
2022/02/13 07:04:00;;;;;;;10.93;6.35;;;2.80;99.90;;;;;;5090473;28;20048;-70
2022/02/13 07:06:25;;;;;;;16.27;6.57;;;2.80;99.90;;;;;;5086759;28;20059;-70
2022/02/13 07:08:52;;;;;;;13.07;6.82;;;2.80;99.90;;;;;;5092973;28;20039;-70
2022/02/13 07:11:18;;;;;;;14.63;7.07;;;2.80;99.90;;;;;;5087787;28;20578;-70
2022/02/13 07:13:43;;;;;;;11.43;6.60;;;2.80;99.90;;;;;;5089434;28;20115;-70
2022/02/13 07:16:09;;;;;;;10.90;7.22;;;2.80;99.90;;;;;;5093081;28;20028;-70
2022/02/13 07:18:35;;;;;;;12.75;7.18;;;2.90;99.90;;;;;;5095463;28;20107;-70
2022/02/13 07:21:00;;;;;;;11.23;6.85;;;2.90;99.90;;;;;;5092792;28;20498;-70
2022/02/13 07:23:26;;;;;;;12.43;7.32;;;2.90;99.90;;;;;;5087778;28;20099;-70
2022/02/13 07:25:53;;;;;;;12.52;6.28;;;2.90;99.90;;;;;;5090704;28;20032;-70
2022/02/13 07:31:02;;;;;;;11.73;6.80;;;3.00;99.90;;;;;;5091403;28;20043;-70
2022/02/13 07:33:28;;;;;;;8.98;6.28;;;3.00;99.90;;;;;;5087215;28;20021;-70
2022/02/13 07:35:54;;;;;;;12.18;6.82;;;3.00;99.90;;;;;;5089326;28;20073;-71
2022/02/13 07:38:19;;;;;;;10.50;6.43;;;3.00;99.90;;;;;;5089434;28;20016;-70
2022/02/13 07:40:45;;;;;;;9.80;6.78;;;3.00;99.90;;;;;;5089126;28;20442;-70
2022/02/13 07:43:11;;;;;;;10.98;6.13;;;3.10;99.90;;;;;;5090334;28;20058;-70
2022/02/13 07:45:37;;;;;;;15.00;7.00;;;3.10;99.90;;;;;;5088260;28;20028;-70
2022/02/13 07:48:03;;;;;;;9.23;5.78;;;3.20;99.90;;;;;;5092912;28;20161;-70
2022/02/13 07:50:29;;;;;;;12.77;6.93;;;3.30;99.90;;;;;;5092935;28;20488;-70
2022/02/13 07:52:54;;;;;;;12.48;7.40;;;3.30;99.90;;;;;;5083684;28;20065;-71
2022/02/13 07:55:20;;;;;;;9.50;6.70;;;3.30;99.90;;;;;;5086442;28;20489;-71
2022/02/13 07:57:46;;;;;;;13.10;6.55;;;3.30;99.90;;;;;;5094640;28;20024;-72
2022/02/13 08:00:12;;;;;;;13.73;6.85;;;3.30;99.90;;;;;;5087216;28;20370;-71
2022/02/13 08:02:38;;;;;;;11.35;6.13;;;3.40;99.90;;;;;;5087091;28;20481;-75
2022/02/13 08:05:05;;;;;;;11.82;6.97;;;3.40;99.90;;;;;;5090109;28;20500;-71
2022/02/13 08:07:31;;;;;;;11.43;6.25;;;3.40;99.90;;;;;;5086639;28;20430;-81
2022/02/13 08:09:56;;;;;;;11.50;6.05;;;3.40;99.90;;;;;;5091244;28;20189;-82
2022/02/13 08:12:22;;;;;;;14.82;6.20;;;3.50;99.90;;;;;;5088473;28;20374;-76
2022/02/13 08:14:48;;;;;;;9.40;5.63;;;3.50;99.90;;;;;;5083959;28;20498;-70
2022/02/13 08:17:14;;;;;;;10.80;5.88;;;3.50;99.90;;;;;;5091149;28;20035;-70
2022/02/13 08:19:40;;;;;;;10.27;6.03;;;3.60;99.90;;;;;;5093526;28;20024;-71
2022/02/13 08:22:07;;;;;;;12.05;5.82;;;3.70;99.90;;;;;;5087285;28;20039;-77
2022/02/13 08:24:34;;;;;;;9.40;6.03;;;3.70;99.90;;;;;;5089843;28;20556;-73
2022/02/13 08:27:00;;;;;;;9.13;5.88;;;3.80;99.90;;;;;;5091070;28;20020;-72
2022/02/13 08:29:26;;;;;;;8.80;5.90;;;3.90;99.90;;;;;;5088978;28;20652;-73
2022/02/13 08:31:52;;;;;;;13.27;5.80;;;3.90;99.90;;;;;;5088998;28;20039;-79
2022/02/13 08:34:18;;;;;;;7.75;4.95;;;4.00;99.90;;;;;;5081167;28;20065;-71
2022/02/13 08:36:44;;;;;;;12.98;5.63;;;4.10;99.90;;;;;;5085614;28;20142;-75
2022/02/13 08:39:09;;;;;;;9.60;6.13;;;4.20;99.90;;;;;;5089907;28;20095;-71
2022/02/13 08:41:36;;;;;;;10.98;5.53;;;4.30;99.90;;;;;;5092334;28;20059;-71
2022/02/13 08:44:06;;;;;;;9.93;5.25;;;4.40;99.90;;;;;;5085023;28;20119;-71
2022/02/13 08:46:33;;;;;;;7.05;5.57;;;4.40;99.90;;;;;;5090195;28;20028;-71
2022/02/13 08:49:00;;;;;;;7.88;5.68;;;4.40;99.90;;;;;;5091575;28;20032;-72
2022/02/13 08:51:26;;;;;;;7.55;4.78;;;4.50;99.90;;;;;;5088394;28;20036;-71
2022/02/13 08:53:53;;;;;;;8.27;5.20;;;4.70;99.90;;;;;;5088107;28;20097;-70
2022/02/13 08:56:18;;;;;;;8.00;5.35;;;4.80;99.90;;;;;;5085545;28;20032;-71
2022/02/13 08:58:44;;;;;;;9.82;5.10;;;4.90;99.90;;;;;;5091215;28;20027;-71
2022/02/13 09:01:10;;;;;;;8.80;5.78;;;4.90;99.90;;;;;;5087908;28;20028;-72
2022/02/13 09:03:36;;;;;;;7.82;5.68;;;5.00;99.90;;;;;;5090271;28;20027;-71
2022/02/13 09:06:01;;;;;;;9.35;5.32;;;5.10;99.90;;;;;;5086058;28;20032;-71
2022/02/13 09:08:27;;;;;;;9.70;5.38;;;5.20;99.90;;;;;;5089714;28;20020;-71
2022/02/13 09:10:53;;;;;;;11.15;5.25;;;5.20;99.90;;;;;;5086864;28;20036;-71
2022/02/13 09:13:18;;;;;;;7.15;5.07;;;5.20;99.90;;;;;;5085726;28;20036;-71
2022/02/13 09:15:44;;;;;;;9.45;5.63;;;5.20;99.90;;;;;;5086762;28;20036;-71
2022/02/13 09:18:14;;;;;;;9.85;5.70;;;5.20;99.90;;;;;;5083567;28;20073;-71
2022/02/13 09:20:44;;;;;;;8.02;4.53;;;5.30;99.90;;;;;;5089438;28;20032;-72
2022/02/13 09:23:17;;;;;;;7.68;4.80;;;5.40;99.90;;;;;;5084129;28;20161;-72
2022/02/13 09:25:43;;;;;;;;;;;5.50;99.90;;;;;;5088429;28;20016;-72
2022/02/13 09:28:09;;;;;;;11.63;5.30;;;5.70;99.90;;;;;;5082793;28;20481;-72
2022/02/13 09:30:35;;;;;;;8.82;4.35;;;5.80;99.90;;;;;;5089374;28;20032;-72
2022/02/13 09:33:00;;;;;;;8.18;5.35;;;5.90;99.90;;;;;;5083611;28;20032;-73
2022/02/13 09:35:26;;;;;;;11.27;5.95;;;6.00;99.90;;;;;;5087591;28;20030;-72
2022/02/13 09:37:51;;;;;;;7.97;5.45;;;6.20;99.90;;;;;;5084527;28;20028;-76
2022/02/13 09:40:18;;;;;;;8.43;4.95;;;6.30;99.90;;;;;;5086291;28;20491;-72
2022/02/13 09:42:47;;;;;;;7.05;4.75;;;6.40;99.90;;;;;;5087548;28;20040;-72
2022/02/13 09:45:13;;;;;;;5.68;4.50;;;6.50;99.90;;;;;;5089479;28;20028;-72
2022/02/13 09:47:39;;;;;;;8.93;5.57;;;6.50;99.90;;;;;;5085776;28;20028;-73
2022/02/13 09:50:06;;;;;;;7.70;4.97;;;6.60;99.90;;;;;;5085367;28;20028;-72
2022/02/13 09:52:32;;;;;;;7.25;4.95;;;6.70;99.90;;;;;;5085156;28;20578;-73
2022/02/13 09:54:57;;;;;;;10.57;5.65;;;6.80;99.90;;;;;;5081197;28;20024;-72
2022/02/13 10:00:09;;;;;;;7.47;5.15;;;7.10;99.90;;;;;;5086230;28;20035;-73
2022/02/13 10:02:42;;;;;;;10.10;5.50;;;7.10;99.90;;;;;;5087387;28;20020;-74
2022/02/13 10:05:13;;;;;;;8.02;5.55;;;7.20;99.90;;;;;;5083477;28;20029;-73
2022/02/13 10:07:40;;;;;;;8.82;5.25;;;7.30;99.90;;;;;;5090029;28;20035;-74
2022/02/13 10:10:09;;;;;;;9.68;5.07;;;7.30;99.90;;;;;;5083906;28;20020;-75
2022/02/13 10:12:43;;;;;;;9.32;5.18;;;7.50;99.90;;;;;;5084119;28;20534;-72
2022/02/13 10:15:25;;;;;;;8.63;5.40;;;7.60;99.90;;;;;;5082668;28;20060;-72
2022/02/13 10:18:09;;;;;;;7.95;5.25;;;7.80;99.90;;;;;;5089097;28;20032;-73
2022/02/13 10:20:37;;;;;;;13.02;5.40;;;7.90;99.90;;;;;;5090151;28;20012;-73
2022/02/13 10:23:11;;;;;;;8.88;5.40;;;8.00;99.90;;;;;;5080899;28;20461;-73
2022/02/13 10:25:38;;;;;;;7.85;4.78;;;8.00;99.90;;;;;;5087971;28;20511;-73
2022/02/13 10:28:12;;;;;;;8.30;5.28;;;8.10;99.90;;;;;;5088931;28;20025;-73
2022/02/13 10:30:42;;;;;;;7.63;5.03;;;8.10;99.90;;;;;;5086535;28;20492;-73
2022/02/13 10:33:26;;;;;;;9.88;5.90;;;8.20;99.90;;;;;;5083983;28;20032;-73
2022/02/13 10:36:08;;;;;;;7.40;4.65;;;8.40;99.90;;;;;;5087385;28;20024;-72
2022/02/13 10:38:38;;;;;;;;;;;8.40;99.90;;;;;;5083829;28;20032;-73
2022/02/13 10:41:13;;;;;;;6.78;5.05;;;8.40;99.90;;;;;;5090870;28;19924;-78
2022/02/13 10:43:59;;;;;;;6.85;4.55;;;8.50;99.90;;;;;;5089120;28;20036;-72
2022/02/13 10:46:36;;;;;;;6.80;4.78;;;8.50;99.90;;;;;;5093346;28;20111;-72
2022/02/13 10:49:04;;;;;;;5.78;4.35;;;8.60;99.90;;;;;;5092536;28;20099;-73
2022/02/13 10:51:30;;;;;;;7.13;5.05;;;8.80;99.90;;;;;;5089708;28;20556;-72
2022/02/13 10:53:56;;;;;;;7.82;4.88;;;8.80;99.90;;;;;;5090610;28;20077;-74
2022/02/13 10:56:23;;;;;;;9.02;5.22;;;8.90;99.90;;;;;;5090666;28;20022;-72
2022/02/13 10:58:49;;;;;;;11.80;5.90;;;8.80;99.90;;;;;;5092073;28;20016;-72
2022/02/13 11:01:16;;;;;;;7.55;4.57;;;8.90;99.90;;;;;;5087550;28;20031;-72
2022/02/13 11:03:48;;;;;;;7.53;4.70;;;8.90;99.90;;;;;;5092328;28;20039;-72
2022/02/13 11:06:14;;;;;;;6.20;4.65;;;9.00;99.90;;;;;;5090715;28;20467;-72
2022/02/13 11:08:47;;;;;;;6.15;4.25;;;9.10;99.90;;;;;;5088289;28;20036;-73
2022/02/13 11:11:13;;;;;;;7.68;4.28;;;9.10;99.90;;;;;;5093989;28;20050;-72
2022/02/13 11:13:41;;;;;;;7.65;4.93;;;9.20;99.90;;;;;;5087985;28;20032;-72
2022/02/13 11:16:29;;;;;;;7.35;4.68;;;9.20;99.90;;;;;;5090588;28;20023;-73
2022/02/13 11:19:02;;;;;;;5.85;4.13;;;9.30;99.90;;;;;;5090549;28;20028;-73
2022/02/13 11:21:32;;;;;;;8.80;4.22;;;9.40;99.90;;;;;;5087754;28;20384;-72
2022/02/13 11:23:59;;;;;;;7.13;4.43;;;9.50;99.90;;;;;;5087943;28;20103;-72
2022/02/13 11:26:36;;;;;;;6.55;4.85;;;9.40;99.90;;;;;;5086518;28;20122;-73
2022/02/13 11:29:03;;;;;;;6.85;3.95;;;9.50;99.90;;;;;;5090805;28;20499;-72
2022/02/13 11:31:29;;;;;;;5.43;4.30;;;9.60;99.90;;;;;;5088901;28;20519;-73
2022/02/13 11:33:59;;;;;;;8.10;4.28;;;9.70;99.90;;;;;;5085178;28;20017;-73
2022/02/13 11:36:52;;;;;;;6.55;4.22;;;9.70;99.90;;;;;;5091611;28;20055;-72
2022/02/13 11:39:40;;;;;;;;;;;9.70;99.90;;;;;;5091396;28;20015;-73
2022/02/13 11:42:07;;;;;;;5.43;4.63;;;9.70;99.90;;;;;;5085895;28;19912;-73
2022/02/13 11:44:35;;;;;;;6.60;4.20;;;9.80;99.90;;;;;;5086760;28;20039;-72
2022/02/13 11:47:10;;;;;;;8.13;3.97;;;9.70;99.90;;;;;;5089484;28;20038;-72
2022/02/13 11:50:11;;;;;;;8.25;4.53;;;9.80;99.90;;;;;;5091458;28;20456;-73
2022/02/13 11:52:40;;;;;;;5.97;4.32;;;9.80;99.90;;;;;;5073402;28;20083;-72
2022/02/13 11:55:07;;;;;;;5.35;3.90;;;9.70;99.90;;;;;;5092779;28;20019;-72
2022/02/13 11:57:33;;;;;;;6.25;4.60;;;9.70;99.90;;;;;;5087678;28;20031;-73
2022/02/13 11:59:59;;;;;;;7.18;4.35;;;9.70;99.90;;;;;;5091529;28;21247;-72
2022/02/13 12:02:30;;;;;;;6.60;3.97;;;9.80;99.90;;;;;;5084899;28;20032;-73
2022/02/13 12:05:10;;;;;;;8.73;4.97;;;9.90;99.90;;;;;;5087533;28;20032;-73
2022/02/13 12:07:58;;;;;;;8.00;4.30;;;9.90;99.90;;;;;;5086764;28;20071;-72
2022/02/13 12:10:39;;;;;;;6.32;4.05;;;9.90;99.90;;;;;;5088362;28;20098;-72
2022/02/13 12:13:16;;;;;;;6.32;3.70;;;9.90;99.90;;;;;;5092251;28;20115;-73
2022/02/13 12:15:53;;;;;;;4.72;3.78;;;10.00;99.90;;;;;;5092215;28;20031;-73
2022/02/13 12:18:20;;;;;;;5.15;3.55;;;10.00;99.90;;;;;;5090809;28;20055;-73
2022/02/13 12:20:46;;;;;;;8.32;4.45;;;10.00;99.90;;;;;;5088121;28;20024;-79
2022/02/13 12:23:17;;;;;;;5.38;4.10;;;10.10;99.90;;;;;;5082854;28;20027;-79
2022/02/13 12:25:47;;;;;;;5.60;3.78;;;10.10;99.90;;;;;;5091081;28;20138;-76
2022/02/13 12:28:19;;;;;;;7.63;3.75;;;10.20;99.90;;;;;;5090489;28;20024;-76
2022/02/13 12:30:54;;;;;;;7.70;4.10;;;10.30;99.90;;;;;;5088896;28;20078;-75
2022/02/13 12:33:25;;;;;;;8.30;4.57;;;10.30;99.90;;;;;;5086187;28;20288;-75
2022/02/13 12:35:58;;;;;;;10.63;5.00;;;10.30;99.90;;;;;;5087722;28;20485;-75
2022/02/13 12:38:26;;;;;;;6.78;4.10;;;10.20;99.90;;;;;;5083945;28;20058;-75
2022/02/13 12:40:55;;;;;;;10.88;4.55;;;10.20;99.90;;;;;;5089821;28;20485;-75
2022/02/13 12:43:22;;;;;;;7.85;4.22;;;10.20;99.90;;;;;;5090470;28;20280;-75
2022/02/13 12:45:50;;;;;;;7.88;4.72;;;10.30;99.90;;;;;;5091239;28;20036;-75
2022/02/13 12:48:21;;;;;;;7.88;4.80;;;10.40;99.90;;;;;;5090057;28;20050;-74
2022/02/13 12:50:49;;;;;;;9.00;4.68;;;10.40;99.90;;;;;;5086458;28;20593;-73
2022/02/13 12:53:19;;;;;;;6.93;4.03;;;10.50;99.90;;;;;;5086549;28;20121;-74
2022/02/13 12:55:45;;;;;;;6.38;4.30;;;10.50;99.90;;;;;;5088938;28;20194;-75